Bookmark and Share
Track history (hours):
 

YM Initiative

Last reported at 2014-Apr-16 22:09 UTC. Time now 2014-Apr-23 09:26 UTC.
Position N 23°18' E 117°43'.

Length 173 m; draft 7.7 m.

Type: Cargo ship. MMSI: 635961368.

NotesDate/timePositionNaut miles runAvg speedWind from/ knotsBaromVisibWave heightAir tempDewpointWater temp
2014-Apr-16 22:09N 23°18' E 117°43'12218.2
2014-Apr-16 15:28N 24°39' E 119°22'1616.7
2014-Apr-16 14:31N 24°50' E 119°34'1515.8
2014-Apr-16 13:33N 25°00' E 119°47'1816.4
2014-Apr-16 12:28N 25°13' E 120°01'25717.0
2014-Apr-15 21:20N 28°44' E 122°45'8817.7
2014-Apr-15 16:24N 29°59' E 123°39'1517.3
2014-Apr-15 15:32N 30°14' E 123°39'38 9.4
2014-Apr-15 11:32N 30°51' E 123°33'10212.7
2014-Apr-15 03:29N 31°20' E 121°39'0 0.0
2014-Apr-15 00:29N 31°20' E 121°39'0 0.0
2014-Apr-14 21:29N 31°20' E 121°39'4 1.0
2014-Apr-14 17:34N 31°19' E 121°43'1010.2
2014-Apr-14 16:33N 31°16' E 121°55'1514.3
2014-Apr-14 15:30N 31°10' E 122°11'1112.0
2014-Apr-14 14:34N 31°06' E 122°23'8 8.0
2014-Apr-14 13:32N 31°11' E 122°31'284 7.2
2014-Apr-12 22:10N 35°43' E 120°52'1016.4
2014-Apr-12 21:32N 35°52' E 120°46'1515.7
2014-Apr-12 20:33N 35°59' E 120°29'1212.3
2014-Apr-12 19:33N 36°01' E 120°14'1 0.1
2014-Apr-12 01:31N 36°02' E 120°15'1010.3
2014-Apr-12 00:33N 36°00' E 120°27'1111.0
2014-Apr-11 23:33N 35°58' E 120°40'20 3.3
2014-Apr-11 17:29N 35°47' E 121°01'0 0.0
2014-Apr-11 16:08N 35°47' E 121°01'  

Dump ship's entire track history

sailing weather and tide predictions

YM Initiative — A8HX4 — position and weather